sensor_id;sensor_type;location;lat;lon;timestamp;P1;durP1;ratioP1;P2;durP2;ratioP2
76284;SDS011;71676;50.998;7.098;2024-02-26T00:00:52;2.05;;;1.00;;
76284;SDS011;71676;50.998;7.098;2024-02-26T00:03:20;2.05;;;1.00;;
76284;SDS011;71676;50.998;7.098;2024-02-26T00:05:46;2.60;;;1.25;;
76284;SDS011;71676;50.998;7.098;2024-02-26T00:08:13;1.55;;;0.90;;
76284;SDS011;71676;50.998;7.098;2024-02-26T00:10:40;3.17;;;1.25;;
76284;SDS011;71676;50.998;7.098;2024-02-26T00:13:07;1.63;;;0.88;;
76284;SDS011;71676;50.998;7.098;2024-02-26T00:15:34;2.28;;;1.13;;
76284;SDS011;71676;50.998;7.098;2024-02-26T00:18:01;2.17;;;0.90;;
76284;SDS011;71676;50.998;7.098;2024-02-26T00:20:29;3.15;;;1.20;;
76284;SDS011;71676;50.998;7.098;2024-02-26T00:22:55;5.70;;;2.03;;
76284;SDS011;71676;50.998;7.098;2024-02-26T00:25:21;4.25;;;1.80;;
76284;SDS011;71676;50.998;7.098;2024-02-26T00:27:48;3.20;;;1.30;;
76284;SDS011;71676;50.998;7.098;2024-02-26T00:30:15;1.95;;;1.00;;
76284;SDS011;71676;50.998;7.098;2024-02-26T00:32:41;1.85;;;1.13;;
76284;SDS011;71676;50.998;7.098;2024-02-26T00:35:08;2.83;;;1.10;;
76284;SDS011;71676;50.998;7.098;2024-02-26T00:37:37;4.43;;;0.90;;
76284;SDS011;71676;50.998;7.098;2024-02-26T00:40:04;2.22;;;1.20;;
76284;SDS011;71676;50.998;7.098;2024-02-26T00:42:32;2.22;;;0.98;;
76284;SDS011;71676;50.998;7.098;2024-02-26T00:44:58;2.20;;;1.00;;
76284;SDS011;71676;50.998;7.098;2024-02-26T00:47:25;2.63;;;1.08;;
76284;SDS011;71676;50.998;7.098;2024-02-26T00:49:51;2.03;;;1.00;;
76284;SDS011;71676;50.998;7.098;2024-02-26T00:52:18;1.35;;;0.65;;
76284;SDS011;71676;50.998;7.098;2024-02-26T00:54:46;1.77;;;0.93;;
76284;SDS011;71676;50.998;7.098;2024-02-26T00:57:12;3.75;;;1.00;;
76284;SDS011;71676;50.998;7.098;2024-02-26T00:59:39;2.35;;;1.15;;
76284;SDS011;71676;50.998;7.098;2024-02-26T01:02:06;0.68;;;0.68;;
76284;SDS011;71676;50.998;7.098;2024-02-26T01:04:32;2.05;;;1.13;;
76284;SDS011;71676;50.998;7.098;2024-02-26T01:07:00;2.67;;;0.98;;
76284;SDS011;71676;50.998;7.098;2024-02-26T01:09:27;1.95;;;1.13;;
76284;SDS011;71676;50.998;7.098;2024-02-26T01:11:55;0.95;;;0.90;;
76284;SDS011;71676;50.998;7.098;2024-02-26T01:14:21;1.70;;;0.93;;
76284;SDS011;71676;50.998;7.098;2024-02-26T01:16:48;2.40;;;1.00;;
76284;SDS011;71676;50.998;7.098;2024-02-26T01:19:15;1.52;;;0.98;;
76284;SDS011;71676;50.998;7.098;2024-02-26T01:21:41;2.38;;;1.05;;
76284;SDS011;71676;50.998;7.098;2024-02-26T01:24:08;1.52;;;1.00;;
76284;SDS011;71676;50.998;7.098;2024-02-26T01:26:35;2.20;;;0.90;;
76284;SDS011;71676;50.998;7.098;2024-02-26T01:29:03;1.40;;;0.80;;
76284;SDS011;71676;50.998;7.098;2024-02-26T01:31:30;2.63;;;1.25;;
76284;SDS011;71676;50.998;7.098;2024-02-26T01:33:57;2.20;;;1.08;;
76284;SDS011;71676;50.998;7.098;2024-02-26T01:36:23;1.80;;;0.80;;
76284;SDS011;71676;50.998;7.098;2024-02-26T01:38:50;2.03;;;1.05;;
76284;SDS011;71676;50.998;7.098;2024-02-26T01:41:17;1.55;;;1.00;;
76284;SDS011;71676;50.998;7.098;2024-02-26T01:43:43;1.95;;;1.00;;
76284;SDS011;71676;50.998;7.098;2024-02-26T01:46:12;1.50;;;0.80;;
76284;SDS011;71676;50.998;7.098;2024-02-26T01:48:40;1.90;;;1.00;;
76284;SDS011;71676;50.998;7.098;2024-02-26T01:51:07;1.42;;;1.02;;
76284;SDS011;71676;50.998;7.098;2024-02-26T01:53:34;1.27;;;0.77;;
76284;SDS011;71676;50.998;7.098;2024-02-26T01:56:01;2.10;;;0.95;;
76284;SDS011;71676;50.998;7.098;2024-02-26T01:58:28;1.27;;;0.98;;
76284;SDS011;71676;50.998;7.098;2024-02-26T02:00:55;2.70;;;1.10;;
76284;SDS011;71676;50.998;7.098;2024-02-26T02:03:23;1.40;;;0.93;;
76284;SDS011;71676;50.998;7.098;2024-02-26T02:05:51;3.00;;;1.00;;
76284;SDS011;71676;50.998;7.098;2024-02-26T02:08:17;2.20;;;1.05;;
76284;SDS011;71676;50.998;7.098;2024-02-26T02:10:44;1.95;;;1.20;;
76284;SDS011;71676;50.998;7.098;2024-02-26T02:13:12;1.92;;;1.08;;
76284;SDS011;71676;50.998;7.098;2024-02-26T02:15:39;1.65;;;0.80;;
76284;SDS011;71676;50.998;7.098;2024-02-26T02:18:06;1.17;;;0.90;;
76284;SDS011;71676;50.998;7.098;2024-02-26T02:20:35;2.83;;;1.02;;
76284;SDS011;71676;50.998;7.098;2024-02-26T02:23:02;2.20;;;1.05;;
76284;SDS011;71676;50.998;7.098;2024-02-26T02:25:29;2.00;;;0.93;;
76284;SDS011;71676;50.998;7.098;2024-02-26T02:27:56;2.95;;;1.05;;
76284;SDS011;71676;50.998;7.098;2024-02-26T02:30:32;2.53;;;1.25;;
76284;SDS011;71676;50.998;7.098;2024-02-26T02:33:00;2.10;;;0.93;;
76284;SDS011;71676;50.998;7.098;2024-02-26T02:35:27;2.50;;;1.00;;
76284;SDS011;71676;50.998;7.098;2024-02-26T02:37:57;0.85;;;0.82;;
76284;SDS011;71676;50.998;7.098;2024-02-26T02:40:24;2.03;;;1.00;;
76284;SDS011;71676;50.998;7.098;2024-02-26T02:42:50;1.70;;;0.95;;
76284;SDS011;71676;50.998;7.098;2024-02-26T02:45:17;1.90;;;0.80;;
76284;SDS011;71676;50.998;7.098;2024-02-26T02:47:43;2.78;;;1.17;;
76284;SDS011;71676;50.998;7.098;2024-02-26T02:50:10;1.90;;;0.80;;
76284;SDS011;71676;50.998;7.098;2024-02-26T02:52:36;1.67;;;1.00;;
76284;SDS011;71676;50.998;7.098;2024-02-26T02:55:05;2.15;;;1.00;;
76284;SDS011;71676;50.998;7.098;2024-02-26T02:57:32;3.72;;;1.23;;
76284;SDS011;71676;50.998;7.098;2024-02-26T02:59:59;1.80;;;0.90;;
76284;SDS011;71676;50.998;7.098;2024-02-26T03:02:26;2.63;;;1.35;;
76284;SDS011;71676;50.998;7.098;2024-02-26T03:04:52;2.85;;;1.27;;
76284;SDS011;71676;50.998;7.098;2024-02-26T03:07:19;1.95;;;0.73;;
76284;SDS011;71676;50.998;7.098;2024-02-26T03:09:45;1.67;;;1.00;;
76284;SDS011;71676;50.998;7.098;2024-02-26T03:12:13;1.95;;;1.00;;
76284;SDS011;71676;50.998;7.098;2024-02-26T03:14:40;2.58;;;0.90;;
76284;SDS011;71676;50.998;7.098;2024-02-26T03:17:07;1.25;;;0.85;;
76284;SDS011;71676;50.998;7.098;2024-02-26T03:19:33;2.50;;;1.02;;
76284;SDS011;71676;50.998;7.098;2024-02-26T03:22:00;1.42;;;0.82;;
76284;SDS011;71676;50.998;7.098;2024-02-26T03:24:27;1.80;;;0.93;;
76284;SDS011;71676;50.998;7.098;2024-02-26T03:26:54;2.40;;;1.00;;
76284;SDS011;71676;50.998;7.098;2024-02-26T03:29:22;1.95;;;1.10;;
76284;SDS011;71676;50.998;7.098;2024-02-26T03:31:48;1.73;;;1.13;;
76284;SDS011;71676;50.998;7.098;2024-02-26T03:34:15;2.25;;;1.00;;
76284;SDS011;71676;50.998;7.098;2024-02-26T03:36:43;2.50;;;1.00;;
76284;SDS011;71676;50.998;7.098;2024-02-26T03:39:10;0.70;;;0.70;;
76284;SDS011;71676;50.998;7.098;2024-02-26T03:41:37;2.25;;;1.15;;
76284;SDS011;71676;50.998;7.098;2024-02-26T03:44:04;1.75;;;1.00;;
76284;SDS011;71676;50.998;7.098;2024-02-26T03:46:32;2.70;;;1.10;;
76284;SDS011;71676;50.998;7.098;2024-02-26T03:48:58;4.03;;;1.10;;
76284;SDS011;71676;50.998;7.098;2024-02-26T03:51:25;1.70;;;1.20;;
76284;SDS011;71676;50.998;7.098;2024-02-26T03:53:56;1.70;;;0.75;;
76284;SDS011;71676;50.998;7.098;2024-02-26T03:56:22;2.20;;;1.08;;
76284;SDS011;71676;50.998;7.098;2024-02-26T03:58:49;2.95;;;0.90;;
76284;SDS011;71676;50.998;7.098;2024-02-26T04:01:16;2.22;;;1.00;;
76284;SDS011;71676;50.998;7.098;2024-02-26T04:03:44;1.80;;;1.05;;
76284;SDS011;71676;50.998;7.098;2024-02-26T04:06:11;1.65;;;1.00;;
76284;SDS011;71676;50.998;7.098;2024-02-26T04:08:39;1.88;;;1.02;;
76284;SDS011;71676;50.998;7.098;2024-02-26T04:11:06;2.33;;;1.13;;
76284;SDS011;71676;50.998;7.098;2024-02-26T04:13:33;1.92;;;0.98;;
76284;SDS011;71676;50.998;7.098;2024-02-26T04:15:59;1.85;;;1.00;;
76284;SDS011;71676;50.998;7.098;2024-02-26T04:18:27;2.05;;;0.93;;
76284;SDS011;71676;50.998;7.098;2024-02-26T04:20:55;1.40;;;0.85;;
76284;SDS011;71676;50.998;7.098;2024-02-26T04:23:22;2.50;;;1.10;;
76284;SDS011;71676;50.998;7.098;2024-02-26T04:25:49;4.60;;;1.10;;
76284;SDS011;71676;50.998;7.098;2024-02-26T04:28:18;1.77;;;1.10;;
76284;SDS011;71676;50.998;7.098;2024-02-26T04:30:45;2.90;;;1.20;;
76284;SDS011;71676;50.998;7.098;2024-02-26T04:33:13;1.80;;;1.13;;
76284;SDS011;71676;50.998;7.098;2024-02-26T04:35:39;2.50;;;1.15;;
76284;SDS011;71676;50.998;7.098;2024-02-26T04:38:07;1.20;;;0.90;;
76284;SDS011;71676;50.998;7.098;2024-02-26T04:40:34;2.13;;;1.00;;
76284;SDS011;71676;50.998;7.098;2024-02-26T04:43:01;2.78;;;1.05;;
76284;SDS011;71676;50.998;7.098;2024-02-26T04:45:27;2.63;;;0.98;;
76284;SDS011;71676;50.998;7.098;2024-02-26T04:47:54;2.22;;;1.00;;
76284;SDS011;71676;50.998;7.098;2024-02-26T04:50:21;2.60;;;1.08;;
76284;SDS011;71676;50.998;7.098;2024-02-26T04:52:47;2.10;;;1.00;;
76284;SDS011;71676;50.998;7.098;2024-02-26T04:55:14;3.28;;;1.20;;
76284;SDS011;71676;50.998;7.098;2024-02-26T04:57:41;5.15;;;1.10;;
76284;SDS011;71676;50.998;7.098;2024-02-26T05:00:08;2.22;;;1.13;;
76284;SDS011;71676;50.998;7.098;2024-02-26T05:02:35;2.42;;;0.98;;
76284;SDS011;71676;50.998;7.098;2024-02-26T05:05:04;2.20;;;1.15;;
76284;SDS011;71676;50.998;7.098;2024-02-26T05:07:30;2.55;;;1.10;;
76284;SDS011;71676;50.998;7.098;2024-02-26T05:09:57;3.47;;;1.00;;
76284;SDS011;71676;50.998;7.098;2024-02-26T05:12:25;1.52;;;0.88;;
76284;SDS011;71676;50.998;7.098;2024-02-26T05:14:52;2.35;;;1.00;;
76284;SDS011;71676;50.998;7.098;2024-02-26T05:17:19;2.50;;;1.08;;
76284;SDS011;71676;50.998;7.098;2024-02-26T05:19:45;2.95;;;1.10;;
76284;SDS011;71676;50.998;7.098;2024-02-26T05:22:12;2.80;;;1.10;;
76284;SDS011;71676;50.998;7.098;2024-02-26T05:24:38;1.88;;;1.00;;
76284;SDS011;71676;50.998;7.098;2024-02-26T05:27:05;2.35;;;1.10;;
76284;SDS011;71676;50.998;7.098;2024-02-26T05:29:33;2.28;;;1.10;;
76284;SDS011;71676;50.998;7.098;2024-02-26T05:32:00;2.75;;;1.00;;
76284;SDS011;71676;50.998;7.098;2024-02-26T05:34:26;2.53;;;1.27;;
76284;SDS011;71676;50.998;7.098;2024-02-26T05:36:55;2.00;;;1.17;;
76284;SDS011;71676;50.998;7.098;2024-02-26T05:39:22;2.25;;;1.10;;
76284;SDS011;71676;50.998;7.098;2024-02-26T05:41:48;3.15;;;1.13;;
76284;SDS011;71676;50.998;7.098;2024-02-26T05:44:15;2.25;;;1.15;;
76284;SDS011;71676;50.998;7.098;2024-02-26T05:46:43;5.80;;;1.52;;
76284;SDS011;71676;50.998;7.098;2024-02-26T05:49:10;3.13;;;1.30;;
76284;SDS011;71676;50.998;7.098;2024-02-26T05:51:36;7.20;;;2.30;;
76284;SDS011;71676;50.998;7.098;2024-02-26T05:54:03;6.03;;;1.70;;
76284;SDS011;71676;50.998;7.098;2024-02-26T05:56:29;3.78;;;1.52;;
76284;SDS011;71676;50.998;7.098;2024-02-26T05:58:56;9.20;;;2.55;;
76284;SDS011;71676;50.998;7.098;2024-02-26T06:01:23;5.22;;;1.70;;
76284;SDS011;71676;50.998;7.098;2024-02-26T06:03:52;7.28;;;2.40;;
76284;SDS011;71676;50.998;7.098;2024-02-26T06:06:18;6.72;;;2.10;;
76284;SDS011;71676;50.998;7.098;2024-02-26T06:08:47;10.00;;;3.08;;
76284;SDS011;71676;50.998;7.098;2024-02-26T06:11:14;7.28;;;2.50;;
76284;SDS011;71676;50.998;7.098;2024-02-26T06:13:41;6.85;;;2.20;;
76284;SDS011;71676;50.998;7.098;2024-02-26T06:16:08;6.07;;;2.10;;
76284;SDS011;71676;50.998;7.098;2024-02-26T06:18:34;3.50;;;1.58;;
76284;SDS011;71676;50.998;7.098;2024-02-26T06:21:03;3.97;;;1.77;;
76284;SDS011;71676;50.998;7.098;2024-02-26T06:23:30;6.22;;;2.92;;
76284;SDS011;71676;50.998;7.098;2024-02-26T06:25:56;5.13;;;1.90;;
76284;SDS011;71676;50.998;7.098;2024-02-26T06:28:23;4.57;;;1.63;;
76284;SDS011;71676;50.998;7.098;2024-02-26T06:30:50;3.90;;;1.70;;
76284;SDS011;71676;50.998;7.098;2024-02-26T06:33:17;4.05;;;1.40;;
76284;SDS011;71676;50.998;7.098;2024-02-26T06:35:44;4.30;;;1.60;;
76284;SDS011;71676;50.998;7.098;2024-02-26T06:38:12;3.90;;;1.48;;
76284;SDS011;71676;50.998;7.098;2024-02-26T06:40:39;4.05;;;1.70;;
76284;SDS011;71676;50.998;7.098;2024-02-26T06:43:05;3.28;;;1.55;;
76284;SDS011;71676;50.998;7.098;2024-02-26T06:45:32;4.15;;;1.67;;
76284;SDS011;71676;50.998;7.098;2024-02-26T06:47:59;2.85;;;1.63;;
76284;SDS011;71676;50.998;7.098;2024-02-26T06:50:26;3.42;;;1.58;;
76284;SDS011;71676;50.998;7.098;2024-02-26T06:52:52;3.28;;;1.67;;
76284;SDS011;71676;50.998;7.098;2024-02-26T06:55:20;3.22;;;1.50;;
76284;SDS011;71676;50.998;7.098;2024-02-26T06:57:47;2.63;;;1.48;;
76284;SDS011;71676;50.998;7.098;2024-02-26T07:00:14;5.40;;;1.90;;
76284;SDS011;71676;50.998;7.098;2024-02-26T07:02:41;5.00;;;1.80;;
76284;SDS011;71676;50.998;7.098;2024-02-26T07:05:08;4.20;;;1.70;;
76284;SDS011;71676;50.998;7.098;2024-02-26T07:07:35;4.57;;;1.70;;
76284;SDS011;71676;50.998;7.098;2024-02-26T07:10:02;3.28;;;1.50;;
76284;SDS011;71676;50.998;7.098;2024-02-26T07:12:32;3.60;;;1.50;;
76284;SDS011;71676;50.998;7.098;2024-02-26T07:14:58;3.17;;;1.60;;
76284;SDS011;71676;50.998;7.098;2024-02-26T07:17:25;2.53;;;1.30;;
76284;SDS011;71676;50.998;7.098;2024-02-26T07:19:52;2.45;;;1.38;;
76284;SDS011;71676;50.998;7.098;2024-02-26T07:22:18;3.88;;;1.73;;
76284;SDS011;71676;50.998;7.098;2024-02-26T07:24:45;2.80;;;1.40;;
76284;SDS011;71676;50.998;7.098;2024-02-26T07:27:12;3.38;;;1.35;;
76284;SDS011;71676;50.998;7.098;2024-02-26T07:29:40;2.88;;;1.42;;
76284;SDS011;71676;50.998;7.098;2024-02-26T07:32:06;2.25;;;1.33;;
76284;SDS011;71676;50.998;7.098;2024-02-26T07:34:33;3.42;;;1.70;;
76284;SDS011;71676;50.998;7.098;2024-02-26T07:37:00;2.92;;;1.55;;
76284;SDS011;71676;50.998;7.098;2024-02-26T07:39:28;3.40;;;1.33;;
76284;SDS011;71676;50.998;7.098;2024-02-26T07:41:54;3.38;;;1.50;;
76284;SDS011;71676;50.998;7.098;2024-02-26T07:44:21;3.47;;;1.45;;
76284;SDS011;71676;50.998;7.098;2024-02-26T07:46:49;3.95;;;1.40;;
76284;SDS011;71676;50.998;7.098;2024-02-26T07:49:16;2.60;;;1.40;;
76284;SDS011;71676;50.998;7.098;2024-02-26T07:51:42;2.47;;;1.48;;
76284;SDS011;71676;50.998;7.098;2024-02-26T07:54:09;1.70;;;1.38;;
76284;SDS011;71676;50.998;7.098;2024-02-26T07:56:36;2.72;;;1.40;;
76284;SDS011;71676;50.998;7.098;2024-02-26T07:59:03;4.50;;;1.55;;
76284;SDS011;71676;50.998;7.098;2024-02-26T08:01:29;3.38;;;1.40;;
76284;SDS011;71676;50.998;7.098;2024-02-26T08:03:57;3.15;;;1.65;;
76284;SDS011;71676;50.998;7.098;2024-02-26T08:06:24;2.92;;;1.60;;
76284;SDS011;71676;50.998;7.098;2024-02-26T08:08:50;4.15;;;1.80;;
76284;SDS011;71676;50.998;7.098;2024-02-26T08:11:17;3.17;;;1.48;;
76284;SDS011;71676;50.998;7.098;2024-02-26T08:13:44;3.20;;;1.40;;
76284;SDS011;71676;50.998;7.098;2024-02-26T08:16:11;3.22;;;1.58;;
76284;SDS011;71676;50.998;7.098;2024-02-26T08:18:38;4.25;;;1.55;;
76284;SDS011;71676;50.998;7.098;2024-02-26T08:21:06;2.80;;;1.42;;
76284;SDS011;71676;50.998;7.098;2024-02-26T08:23:33;2.50;;;1.30;;
76284;SDS011;71676;50.998;7.098;2024-02-26T08:26:00;3.08;;;1.60;;
76284;SDS011;71676;50.998;7.098;2024-02-26T08:28:28;3.42;;;1.50;;
76284;SDS011;71676;50.998;7.098;2024-02-26T08:30:55;4.32;;;1.50;;
76284;SDS011;71676;50.998;7.098;2024-02-26T08:33:22;3.05;;;1.40;;
76284;SDS011;71676;50.998;7.098;2024-02-26T08:35:48;2.80;;;1.40;;
76284;SDS011;71676;50.998;7.098;2024-02-26T08:38:16;3.65;;;1.52;;
76284;SDS011;71676;50.998;7.098;2024-02-26T08:40:43;4.32;;;1.60;;
76284;SDS011;71676;50.998;7.098;2024-02-26T08:43:09;3.70;;;1.70;;
76284;SDS011;71676;50.998;7.098;2024-02-26T08:45:36;3.92;;;1.42;;
76284;SDS011;71676;50.998;7.098;2024-02-26T08:48:03;3.97;;;1.55;;
76284;SDS011;71676;50.998;7.098;2024-02-26T08:50:30;3.42;;;1.50;;
76284;SDS011;71676;50.998;7.098;2024-02-26T08:52:57;3.83;;;1.48;;
76284;SDS011;71676;50.998;7.098;2024-02-26T08:55:27;3.47;;;1.50;;
76284;SDS011;71676;50.998;7.098;2024-02-26T08:57:54;2.78;;;1.30;;
76284;SDS011;71676;50.998;7.098;2024-02-26T09:00:20;4.07;;;1.63;;
76284;SDS011;71676;50.998;7.098;2024-02-26T09:02:47;5.15;;;1.40;;
76284;SDS011;71676;50.998;7.098;2024-02-26T09:05:14;4.13;;;1.30;;
76284;SDS011;71676;50.998;7.098;2024-02-26T09:07:41;3.33;;;1.40;;
76284;SDS011;71676;50.998;7.098;2024-02-26T09:10:08;6.45;;;1.55;;
76284;SDS011;71676;50.998;7.098;2024-02-26T09:12:36;2.92;;;1.48;;
76284;SDS011;71676;50.998;7.098;2024-02-26T09:15:05;5.05;;;1.52;;
76284;SDS011;71676;50.998;7.098;2024-02-26T09:17:33;3.38;;;1.50;;
76284;SDS011;71676;50.998;7.098;2024-02-26T09:19:59;6.18;;;1.60;;
76284;SDS011;71676;50.998;7.098;2024-02-26T09:22:26;3.42;;;1.50;;
76284;SDS011;71676;50.998;7.098;2024-02-26T09:24:53;4.75;;;1.92;;
76284;SDS011;71676;50.998;7.098;2024-02-26T09:27:19;4.18;;;1.80;;
76284;SDS011;71676;50.998;7.098;2024-02-26T09:29:47;3.38;;;1.67;;
76284;SDS011;71676;50.998;7.098;2024-02-26T09:32:14;4.07;;;1.73;;
76284;SDS011;71676;50.998;7.098;2024-02-26T09:34:41;4.80;;;1.80;;
76284;SDS011;71676;50.998;7.098;2024-02-26T09:37:07;4.78;;;1.73;;
76284;SDS011;71676;50.998;7.098;2024-02-26T09:39:34;4.10;;;1.60;;
76284;SDS011;71676;50.998;7.098;2024-02-26T09:42:02;7.35;;;2.03;;
76284;SDS011;71676;50.998;7.098;2024-02-26T09:44:31;3.65;;;1.58;;
76284;SDS011;71676;50.998;7.098;2024-02-26T09:47:04;3.72;;;1.70;;
76284;SDS011;71676;50.998;7.098;2024-02-26T09:49:34;4.13;;;1.80;;
76284;SDS011;71676;50.998;7.098;2024-02-26T09:52:02;4.75;;;1.83;;
76284;SDS011;71676;50.998;7.098;2024-02-26T09:54:30;3.90;;;1.73;;
76284;SDS011;71676;50.998;7.098;2024-02-26T09:56:59;5.65;;;1.73;;
76284;SDS011;71676;50.998;7.098;2024-02-26T09:59:29;5.20;;;1.83;;
76284;SDS011;71676;50.998;7.098;2024-02-26T10:02:00;4.82;;;1.70;;
76284;SDS011;71676;50.998;7.098;2024-02-26T10:04:29;4.40;;;1.90;;
76284;SDS011;71676;50.998;7.098;2024-02-26T10:06:56;4.93;;;1.90;;
76284;SDS011;71676;50.998;7.098;2024-02-26T10:09:25;5.95;;;2.00;;
76284;SDS011;71676;50.998;7.098;2024-02-26T10:11:53;3.92;;;1.63;;
76284;SDS011;71676;50.998;7.098;2024-02-26T10:14:20;4.05;;;1.80;;
76284;SDS011;71676;50.998;7.098;2024-02-26T10:16:47;4.70;;;1.95;;
76284;SDS011;71676;50.998;7.098;2024-02-26T10:19:24;5.38;;;1.80;;
76284;SDS011;71676;50.998;7.098;2024-02-26T10:21:55;6.70;;;2.20;;
76284;SDS011;71676;50.998;7.098;2024-02-26T10:24:23;4.50;;;2.10;;
76284;SDS011;71676;50.998;7.098;2024-02-26T10:26:50;4.20;;;1.73;;
76284;SDS011;71676;50.998;7.098;2024-02-26T10:29:17;5.82;;;2.00;;
76284;SDS011;71676;50.998;7.098;2024-02-26T10:31:44;5.22;;;2.30;;
76284;SDS011;71676;50.998;7.098;2024-02-26T10:34:11;4.60;;;2.40;;
76284;SDS011;71676;50.998;7.098;2024-02-26T10:36:38;5.25;;;2.20;;
76284;SDS011;71676;50.998;7.098;2024-02-26T10:39:07;4.90;;;2.40;;
76284;SDS011;71676;50.998;7.098;2024-02-26T10:41:34;4.50;;;2.17;;
76284;SDS011;71676;50.998;7.098;2024-02-26T10:44:00;5.82;;;2.42;;
76284;SDS011;71676;50.998;7.098;2024-02-26T10:46:27;5.10;;;2.20;;
76284;SDS011;71676;50.998;7.098;2024-02-26T10:48:54;6.53;;;1.90;;
76284;SDS011;71676;50.998;7.098;2024-02-26T10:51:24;5.30;;;1.90;;
76284;SDS011;71676;50.998;7.098;2024-02-26T10:53:54;4.03;;;1.88;;
76284;SDS011;71676;50.998;7.098;2024-02-26T10:56:24;5.13;;;1.92;;
76284;SDS011;71676;50.998;7.098;2024-02-26T10:58:53;5.03;;;2.00;;
76284;SDS011;71676;50.998;7.098;2024-02-26T11:01:20;5.75;;;2.03;;
76284;SDS011;71676;50.998;7.098;2024-02-26T11:03:48;5.35;;;1.90;;
76284;SDS011;71676;50.998;7.098;2024-02-26T11:06:17;5.15;;;1.95;;
76284;SDS011;71676;50.998;7.098;2024-02-26T11:08:47;4.55;;;2.00;;
76284;SDS011;71676;50.998;7.098;2024-02-26T11:11:14;6.60;;;2.47;;
76284;SDS011;71676;50.998;7.098;2024-02-26T11:13:43;4.68;;;2.13;;
76284;SDS011;71676;50.998;7.098;2024-02-26T11:16:16;4.28;;;1.73;;
76284;SDS011;71676;50.998;7.098;2024-02-26T11:18:44;5.35;;;2.40;;
76284;SDS011;71676;50.998;7.098;2024-02-26T11:21:13;6.60;;;2.55;;
76284;SDS011;71676;50.998;7.098;2024-02-26T11:23:41;4.95;;;2.30;;
76284;SDS011;71676;50.998;7.098;2024-02-26T11:26:08;4.75;;;2.05;;
76284;SDS011;71676;50.998;7.098;2024-02-26T11:28:37;6.20;;;2.33;;
76284;SDS011;71676;50.998;7.098;2024-02-26T11:31:06;3.95;;;1.52;;
76284;SDS011;71676;50.998;7.098;2024-02-26T11:33:34;4.95;;;2.15;;
76284;SDS011;71676;50.998;7.098;2024-02-26T11:36:02;4.03;;;1.90;;
76284;SDS011;71676;50.998;7.098;2024-02-26T11:38:28;5.70;;;2.17;;
76284;SDS011;71676;50.998;7.098;2024-02-26T11:40:55;5.07;;;2.00;;
76284;SDS011;71676;50.998;7.098;2024-02-26T11:43:33;3.83;;;1.88;;
76284;SDS011;71676;50.998;7.098;2024-02-26T11:46:25;4.10;;;2.08;;
76284;SDS011;71676;50.998;7.098;2024-02-26T11:48:54;4.88;;;2.03;;
76284;SDS011;71676;50.998;7.098;2024-02-26T11:51:24;5.18;;;2.03;;
76284;SDS011;71676;50.998;7.098;2024-02-26T11:53:52;6.03;;;2.83;;
76284;SDS011;71676;50.998;7.098;2024-02-26T11:56:22;4.30;;;1.60;;
76284;SDS011;71676;50.998;7.098;2024-02-26T12:01:40;4.18;;;2.00;;
76284;SDS011;71676;50.998;7.098;2024-02-26T12:04:08;5.90;;;2.30;;
76284;SDS011;71676;50.998;7.098;2024-02-26T12:06:41;4.80;;;1.92;;
76284;SDS011;71676;50.998;7.098;2024-02-26T12:09:11;4.20;;;1.95;;
76284;SDS011;71676;50.998;7.098;2024-02-26T12:11:39;4.00;;;1.88;;
76284;SDS011;71676;50.998;7.098;2024-02-26T12:14:08;4.25;;;1.80;;
76284;SDS011;71676;50.998;7.098;2024-02-26T12:16:36;5.03;;;2.15;;
76284;SDS011;71676;50.998;7.098;2024-02-26T12:19:05;4.80;;;2.25;;
76284;SDS011;71676;50.998;7.098;2024-02-26T12:21:33;4.38;;;1.95;;
76284;SDS011;71676;50.998;7.098;2024-02-26T12:24:09;4.32;;;2.00;;
76284;SDS011;71676;50.998;7.098;2024-02-26T12:26:37;6.53;;;2.22;;
76284;SDS011;71676;50.998;7.098;2024-02-26T12:29:04;5.90;;;2.00;;
76284;SDS011;71676;50.998;7.098;2024-02-26T12:31:31;4.60;;;1.95;;
76284;SDS011;71676;50.998;7.098;2024-02-26T12:33:58;5.82;;;2.20;;
76284;SDS011;71676;50.998;7.098;2024-02-26T12:36:27;5.82;;;2.35;;
76284;SDS011;71676;50.998;7.098;2024-02-26T12:38:53;5.25;;;2.13;;
76284;SDS011;71676;50.998;7.098;2024-02-26T12:41:21;5.35;;;2.45;;
76284;SDS011;71676;50.998;7.098;2024-02-26T12:43:48;5.70;;;2.10;;
76284;SDS011;71676;50.998;7.098;2024-02-26T12:46:14;5.38;;;2.28;;
76284;SDS011;71676;50.998;7.098;2024-02-26T12:48:42;6.20;;;2.20;;
76284;SDS011;71676;50.998;7.098;2024-02-26T12:51:09;6.53;;;2.38;;
76284;SDS011;71676;50.998;7.098;2024-02-26T12:53:38;6.03;;;2.70;;
76284;SDS011;71676;50.998;7.098;2024-02-26T12:56:05;5.25;;;2.17;;
76284;SDS011;71676;50.998;7.098;2024-02-26T12:58:34;4.80;;;2.20;;
76284;SDS011;71676;50.998;7.098;2024-02-26T13:01:03;7.28;;;2.40;;
76284;SDS011;71676;50.998;7.098;2024-02-26T13:03:31;6.22;;;2.38;;
76284;SDS011;71676;50.998;7.098;2024-02-26T13:05:58;5.90;;;2.88;;
76284;SDS011;71676;50.998;7.098;2024-02-26T13:08:25;4.93;;;2.30;;
76284;SDS011;71676;50.998;7.098;2024-02-26T13:10:53;5.63;;;2.33;;
76284;SDS011;71676;50.998;7.098;2024-02-26T13:13:20;7.28;;;2.50;;
76284;SDS011;71676;50.998;7.098;2024-02-26T13:15:47;7.10;;;3.10;;
76284;SDS011;71676;50.998;7.098;2024-02-26T13:18:14;5.30;;;2.17;;
76284;SDS011;71676;50.998;7.098;2024-02-26T13:20:41;7.28;;;2.88;;
76284;SDS011;71676;50.998;7.098;2024-02-26T13:23:12;6.72;;;2.58;;
76284;SDS011;71676;50.998;7.098;2024-02-26T13:25:39;6.38;;;2.60;;
76284;SDS011;71676;50.998;7.098;2024-02-26T13:28:08;8.75;;;3.10;;
76284;SDS011;71676;50.998;7.098;2024-02-26T13:30:35;7.68;;;2.88;;
76284;SDS011;71676;50.998;7.098;2024-02-26T13:33:09;7.28;;;2.75;;
76284;SDS011;71676;50.998;7.098;2024-02-26T13:35:36;7.82;;;3.22;;
76284;SDS011;71676;50.998;7.098;2024-02-26T13:38:04;6.30;;;3.25;;
76284;SDS011;71676;50.998;7.098;2024-02-26T13:40:31;6.97;;;3.17;;
76284;SDS011;71676;50.998;7.098;2024-02-26T13:42:59;7.32;;;2.88;;
76284;SDS011;71676;50.998;7.098;2024-02-26T13:45:27;7.03;;;2.85;;
76284;SDS011;71676;50.998;7.098;2024-02-26T13:47:53;6.53;;;2.53;;
76284;SDS011;71676;50.998;7.098;2024-02-26T13:50:20;7.30;;;2.97;;
76284;SDS011;71676;50.998;7.098;2024-02-26T13:52:48;5.93;;;2.63;;
76284;SDS011;71676;50.998;7.098;2024-02-26T13:55:18;6.60;;;2.47;;
76284;SDS011;71676;50.998;7.098;2024-02-26T13:57:45;7.80;;;3.28;;
76284;SDS011;71676;50.998;7.098;2024-02-26T14:00:12;7.65;;;3.60;;
76284;SDS011;71676;50.998;7.098;2024-02-26T14:02:41;8.07;;;3.55;;
76284;SDS011;71676;50.998;7.098;2024-02-26T14:05:08;13.95;;;6.00;;
76284;SDS011;71676;50.998;7.098;2024-02-26T14:07:35;12.70;;;5.82;;
76284;SDS011;71676;50.998;7.098;2024-02-26T14:10:01;14.68;;;5.50;;
76284;SDS011;71676;50.998;7.098;2024-02-26T14:12:28;16.73;;;5.97;;
76284;SDS011;71676;50.998;7.098;2024-02-26T14:14:55;10.02;;;3.67;;
76284;SDS011;71676;50.998;7.098;2024-02-26T14:17:24;7.80;;;3.70;;
76284;SDS011;71676;50.998;7.098;2024-02-26T14:19:52;8.50;;;3.90;;
76284;SDS011;71676;50.998;7.098;2024-02-26T14:22:19;8.82;;;3.97;;
76284;SDS011;71676;50.998;7.098;2024-02-26T14:24:46;9.65;;;4.60;;
76284;SDS011;71676;50.998;7.098;2024-02-26T14:27:13;8.35;;;3.72;;
76284;SDS011;71676;50.998;7.098;2024-02-26T14:29:41;9.52;;;4.18;;
76284;SDS011;71676;50.998;7.098;2024-02-26T14:32:08;9.27;;;4.07;;
76284;SDS011;71676;50.998;7.098;2024-02-26T14:34:35;10.07;;;4.70;;
76284;SDS011;71676;50.998;7.098;2024-02-26T14:37:03;9.77;;;4.75;;
76284;SDS011;71676;50.998;7.098;2024-02-26T14:39:31;9.82;;;4.40;;
76284;SDS011;71676;50.998;7.098;2024-02-26T14:41:57;11.13;;;5.10;;
76284;SDS011;71676;50.998;7.098;2024-02-26T14:44:25;9.55;;;4.72;;
76284;SDS011;71676;50.998;7.098;2024-02-26T14:46:52;9.68;;;4.60;;
76284;SDS011;71676;50.998;7.098;2024-02-26T14:49:19;9.77;;;4.47;;
76284;SDS011;71676;50.998;7.098;2024-02-26T14:51:45;9.75;;;4.55;;